Tropical Cyclones
[Index]
Main Index Home Page Stock Weather Photos Extreme Storms Discussion Storm News and Storm Chasing Reports Tropical Cyclones / Hurricanes / Typhoons Weather Data and Links Wild Fires / Bushfires Weather Observation Techniques Weather Picture Catalogue Tornado Pictures and Reports Stock Video Footage and DVDs for sale
Season 1955-1956 Tropical Cyclone 195602 Track Map
Season 1955-1956 Summaries: [BoM-AU] [JTWC-AU] [JTWC-SIO] [JTWC-SPAC] [JTWC-SH]
<<- Previous TC | JTWC 1955-1956 Season | Next TC ->>

click for intensity scale information  Lat/long Grid: Show Hide

 Date Labels: Show Hide

Joint Typhoon Warning Centre Cyclone Data

Name: 195602
Number: 244 / 5602

08 Dec 1955 12:00 UTC to 15 Dec 1955 18:00 UTC

    date/time    lat    long     hPa   cat  kts
1955-12-08 12   29.1   164.3                              
1955-12-08 18   29.0   162.4                              
1955-12-09 00   28.9   160.9                              
1955-12-09 06   28.6   159.7                              
1955-12-09 12   28.2   158.8                              
1955-12-09 18   27.5   158.1                              
1955-12-10 00   26.9   157.2                              
1955-12-10 06   26.7   156.2                              
1955-12-10 12   26.8   155.1                              
1955-12-10 18   27.1   153.9                              
1955-12-11 00   27.3   152.8                              
1955-12-11 06   27.5   152.0                              
1955-12-11 12   27.6   151.2                              
1955-12-11 18   27.4   150.2                              
1955-12-12 00   27.3   149.4                              
1955-12-12 06   27.5   151.7                              
1955-12-12 12   27.9   153.5                              
1955-12-12 18   28.3   150.1                              
1955-12-13 00   28.8   148.9                              
1955-12-13 06   28.9   151.6                              
1955-12-13 12   29.2   153.9                              
1955-12-13 18   30.8   155.7                              
1955-12-14 00   32.1   157.1                              
1955-12-14 06   32.9   157.8                              
1955-12-14 12   33.5   158.7                              
1955-12-14 18   33.7   159.7                              
1955-12-15 00   34.1   160.8                              
1955-12-15 06   34.5   162.0                              
1955-12-15 12   35.1   163.1                              
1955-12-15 18   35.7   164.1                              
Winds are 1-min average.

Tropical cyclone tracks developed by Michael Bath using data from the Joint Typhoon Warning Centre Best Tracks and Google Maps.


[Australian Severe Weather index] [Copyright Notice] [Email Contacts] [Search This Site] [Privacy Policy]
Document: tropical_cyclone_195602.htm Updated: 18 September 2016